Hauptseite
METAR-TAF:

METAR-TAF

Flughäfen :

Heeresflugplatz Fritzlar

Fritzlar, Deutschland

Breite: 51-07N, Länge: 009-17E, Höhe: 172 m

Beobachtung

Neuester Wetterbericht von vor 46 Minuten, um 15:20 UTC
Wind 6 kt aus Nordost
Temperatur 28°C
Luftfeuchtigkeit 25%
Luftdruck 1024 hPa
Sichtweite 10 km oder mehr
Leicht bewölkt in der Höhe von 35000 ft

METAR: ETHF 231520Z 04006KT 9999 FEW350 28/06 Q1024 BLU+

Zeit: 18:06 (16:06 UTC)

Prognose

Neuester Wetterbericht von vor 5 Stunden und 44 Minuten, um 10:22 UTC
Gültige Prognose vom 23 um 08 UTC bis 23 um 17 UTC
Wind 3 kt aus unterschiedlichen Richtungen
Sichtweite: 1120 m
Leicht bewölkt in der Höhe von 35000 ft

TAF: ETHF 231022Z 2308/2317 VRB03KT 9999 NSW FEW350 CANCEL 1120

Wetterbeobachtungen und Prognosen von mehr als 4000 Flughäfen (METAR und TAF Bericht).

Die verfügbaren Stationen werden durch gelbe und rote Markierungen auf der Karte dargestellt.

Führen Sie die Maus auf sie, um den Namen der Station zu sehen.

Darauf klicken, um die Beobachtung von Wetterbeobachtungen und Prognosen zu sehen.

Um die Karte zu ändern : klicken Sie auf den grünen Tasten mit einem schwarzen Kreuz Zum Vergrößern, auf den grünen Button mit einem Gedankenstrich zu verkleinern, oder auf die grünen Pfeile für benachbarte Karten.


METAR-TAF: